| time (UTC) | temp C | wind direction | speed KPH | gust KPH | rain 1hr cm | rain 24hr cm | rain mn cm | humidity % | barometer mb |
| 20260508074520 | 15 | 349 | 3.2 | 9.7 | 0.00 | 0.00 | 0.00 | 18 | 1015.1 |
| 20260508073013 | 14 | 71 | 3.2 | 8.0 | 0.00 | 0.00 | 0.00 | 18 | 1015.4 |
| 20260508071515 | 14 | 359 | 1.6 | 8.0 | 0.00 | 0.00 | 0.00 | 19 | 1015.4 |
| 20260508070010 | 13 | 29 | 3.2 | 12.9 | 0.00 | 0.00 | 0.00 | 19 | 1015.4 |
| 20260508064509 | 13 | 53 | 3.2 | 14.5 | 0.00 | 0.00 | 0.00 | 19 | 1015.6 |
| 20260508063013 | 13 | 65 | 6.4 | 16.1 | 0.00 | 0.00 | 0.00 | 19 | 1015.5 |
| 20260508061508 | 13 | 60 | 6.4 | 14.5 | 0.00 | 0.00 | 0.00 | 19 | 1015.4 |
| 20260508060006 | 13 | 68 | 4.8 | 14.5 | 0.00 | 0.00 | 0.00 | 20 | 1015.4 |
| 20260508054505 | 13 | 74 | 9.7 | 14.5 | 0.00 | 0.00 | 0.00 | 20 | 1015.5 |
| 20260508053005 | 13 | 60 | 9.7 | 16.1 | 0.00 | 0.00 | 0.00 | 19 | 1015.5 |
| 20260508051504 | 13 | 53 | 9.7 | 16.1 | 0.00 | 0.00 | 0.00 | 19 | 1015.6 |
| 20260508050005 | 14 | 57 | 8.0 | 14.5 | 0.00 | 0.00 | 0.00 | 19 | 1015.6 |
| 20260508044503 | 14 | 53 | 9.7 | 16.1 | 0.00 | 0.00 | 0.00 | 19 | 1015.5 |
| 20260508043003 | 15 | 38 | 6.4 | 12.9 | 0.00 | 0.00 | 0.00 | 18 | 1015.6 |
| 20260508041504 | 15 | 71 | 4.8 | 9.7 | 0.00 | 0.00 | 0.00 | 17 | 1015.5 |
| 20260508040002 | 15 | 82 | 6.4 | 11.3 | 0.00 | 0.00 | 0.00 | 17 | 1015.4 |
| 20260508034501 | 16 | 71 | 6.4 | 11.3 | 0.00 | 0.00 | 0.00 | 18 | 1015.3 |
| 20260508033003 | 15 | 70 | 8.0 | 16.1 | 0.00 | 0.00 | 0.00 | 19 | 1015.0 |
| 20260508031502 | 16 | 59 | 3.2 | 8.0 | 0.00 | 0.00 | 0.00 | 18 | 1014.7 |
| 20260508024601 | 16 | 63 | 4.8 | 12.9 | 0.00 | 0.00 | 0.00 | 18 | 1014.4 |
| 20260508023100 | 17 | 89 | 4.8 | 9.7 | 0.00 | 0.00 | 0.00 | 17 | 1014.2 |
| 20260508021601 | 18 | 120 | 0.0 | 3.2 | 0.00 | 0.00 | 0.00 | 17 | 1014.0 |
| 20260508020103 | 19 | 134 | 0.0 | 1.6 | 0.00 | 0.00 | 0.00 | 16 | 1013.9 |
| 20260508014559 | 20 | 167 | 3.2 | 8.0 | 0.00 | 0.00 | 0.00 | 15 | 1013.8 |
| 20260508013101 | 20 | 139 | 4.8 | 9.7 | 0.00 | 0.00 | 0.00 | 14 | 1013.6 |
| 20260508011604 | 20 | 136 | 3.2 | 9.7 | 0.00 | 0.00 | 0.00 | 14 | 1013.5 |
| 20260508010057 | 21 | 124 | 4.8 | 14.5 | 0.00 | 0.00 | 0.00 | 13 | 1013.5 |
| 20260508004556 | 21 | 83 | 0.0 | 9.7 | 0.00 | 0.00 | 0.00 | 12 | 1013.4 |
| 20260508003056 | 21 | 174 | 0.0 | 9.7 | 0.00 | 0.00 | 0.00 | 13 | 1013.5 |
| 20260508001617 | 21 | 171 | 4.8 | 12.9 | 0.00 | 0.00 | 0.00 | 12 | 1013.5 |
| 20260508000056 | 22 | 207 | 0.0 | 4.8 | 0.00 | 0.00 | 0.00 | 12 | 1013.5 |
| 20260507234555 | 21 | 169 | 8.0 | 12.9 | 0.00 | 0.00 | 0.00 | 12 | 1013.6 |
| 20260507233054 | 22 | 212 | 3.2 | 11.3 | 0.00 | 0.00 | 0.00 | 12 | 1013.8 |
| 20260507231552 | 21 | 156 | 0.0 | 8.0 | 0.00 | 0.00 | 0.00 | 12 | 1013.9 |
| 20260507230049 | 21 | 250 | 1.6 | 6.4 | 0.00 | 0.00 | 0.00 | 13 | 1014.1 |
| 20260507224553 | 22 | 341 | 0.0 | 3.2 | 0.00 | 0.00 | 0.00 | 13 | 1014.3 |
| 20260507223048 | 22 | 209 | 4.8 | 11.3 | 0.00 | 0.00 | 0.00 | 12 | 1014.4 |
| 20260507221547 | 21 | 266 | 0.0 | 6.4 | 0.00 | 0.00 | 0.00 | 12 | 1014.6 |
| 20260507220047 | 21 | 237 | 4.8 | 9.7 | 0.00 | 0.00 | 0.00 | 12 | 1014.7 |
| 20260507214545 | 22 | 238 | 6.4 | 14.5 | 0.00 | 0.00 | 0.00 | 14 | 1015.0 |
| 20260507213041 | 20 | 169 | 1.6 | 8.0 | 0.00 | 0.00 | 0.00 | 14 | 1015.2 |
| 20260507211536 | 20 | 203 | 3.2 | 12.9 | 0.00 | 0.00 | 0.00 | 14 | 1015.5 |
| 20260507210033 | 20 | 102 | 1.6 | 12.9 | 0.00 | 0.00 | 0.00 | 16 | 1015.8 |
| 20260507204530 | 20 | 293 | 1.6 | 19.3 | 0.00 | 0.00 | 0.00 | 16 | 1016.1 |
| 20260507203033 | 19 | 225 | 4.8 | 11.3 | 0.00 | 0.00 | 0.00 | 18 | 1016.3 |
| 20260507201530 | 19 | 217 | 3.2 | 8.0 | 0.00 | 0.00 | 0.00 | 19 | 1016.5 |
| 20260507200028 | 19 | 233 | 4.8 | 9.7 | 0.00 | 0.00 | 0.00 | 21 | 1016.7 |
| 20260507194523 | 18 | 238 | 1.6 | 12.9 | 0.00 | 0.00 | 0.00 | 23 | 1016.8 |
| 20260507193025 | 18 | 264 | 3.2 | 9.7 | 0.00 | 0.00 | 0.00 | 24 | 1017.0 |
| 20260507191521 | 17 | 155 | 0.0 | 9.7 | 0.00 | 0.00 | 0.00 | 24 | 1017.3 |
| 20260507190019 | 17 | 174 | 1.6 | 8.0 | 0.00 | 0.00 | 0.00 | 25 | 1017.5 |
| 20260507184516 | 16 | 199 | 4.8 | 11.3 | 0.00 | 0.00 | 0.00 | 25 | 1017.7 |
| 20260507183012 | 16 | 227 | 3.2 | 12.9 | 0.00 | 0.00 | 0.00 | 25 | 1018.0 |
| 20260507181510 | 15 | 316 | 4.8 | 8.0 | 0.00 | 0.00 | 0.00 | 26 | 1018.2 |
| 20260507180008 | 16 | 218 | 3.2 | 12.9 | 0.00 | 0.00 | 0.00 | 28 | 1018.5 |
| 20260507174505 | 16 | 176 | 1.6 | 14.5 | 0.00 | 0.00 | 0.00 | 30 | 1018.6 |
| 20260507173003 | 15 | 200 | 1.6 | 9.7 | 0.00 | 0.00 | 0.00 | 31 | 1018.7 |
| 20260507171504 | 14 | 63 | 3.2 | 9.7 | 0.00 | 0.00 | 0.00 | 32 | 1018.9 |
| 20260507170057 | 14 | 229 | 1.6 | 8.0 | 0.00 | 0.00 | 0.00 | 27 | 1019.2 |
| 20260507164555 | 13 | 360 | 1.6 | 6.4 | 0.00 | 0.00 | 0.00 | 29 | 1019.3 |
| 20260507163055 | 13 | 201 | 1.6 | 8.0 | 0.00 | 0.00 | 0.00 | 30 | 1019.3 |
| 20260507161551 | 12 | 220 | 0.0 | 8.0 | 0.00 | 0.00 | 0.00 | 32 | 1019.4 |
| 20260507160052 | 12 | 89 | 0.0 | 6.4 | 0.00 | 0.00 | 0.00 | 33 | 1019.3 |
| 20260507154548 | 12 | 244 | 0.0 | 4.8 | 0.00 | 0.00 | 0.00 | 34 | 1019.4 |
| 20260507153049 | 11 | 217 | 0.0 | 4.8 | 0.00 | 0.00 | 0.00 | 36 | 1019.5 |
| 20260507151541 | 10 | 77 | 0.0 | 0.0 | 0.00 | 0.00 | 0.00 | 40 | 1019.6 |
| 20260507150041 | 9 | 172 | 0.0 | 4.8 | 0.00 | 0.00 | 0.00 | 42 | 1019.7 |
| 20260507144537 | 8 | 129 | 0.0 | 3.2 | 0.00 | 0.00 | 0.00 | 44 | 1019.7 |
| 20260507143036 | 7 | 154 | 0.0 | 8.0 | 0.00 | 0.00 | 0.00 | 45 | 1019.7 |
| 20260507141533 | 7 | 191 | 1.6 | 6.4 | 0.00 | 0.00 | 0.00 | 43 | 1019.7 |
| 20260507140032 | 7 | 70 | 0.0 | 0.0 | 0.00 | 0.00 | 0.00 | 36 | 1019.5 |
| 20260507134529 | 6 | 70 | 0.0 | 4.8 | 0.00 | 0.00 | 0.00 | 40 | 1019.5 |
| 20260507133027 | 5 | 110 | 0.0 | 4.8 | 0.00 | 0.00 | 0.00 | 42 | 1019.4 |
| 20260507131533 | 5 | 310 | 0.0 | 9.7 | 0.00 | 0.00 | 0.00 | 38 | 1019.3 |
| 20260507130025 | 5 | 58 | 3.2 | 11.3 | 0.00 | 0.00 | 0.00 | 36 | 1019.2 |
| 20260507124523 | 5 | 60 | 0.0 | 3.2 | 0.00 | 0.00 | 0.00 | 36 | 1019.3 |
| 20260507123023 | 5 | 65 | 0.0 | 6.4 | 0.00 | 0.00 | 0.00 | 36 | 1019.1 |
| 20260507121520 | 5 | 72 | 4.8 | 11.3 | 0.00 | 0.00 | 0.00 | 36 | 1019.0 |
| 20260507120033 | 5 | 77 | 6.4 | 12.9 | 0.00 | 0.00 | 0.00 | 35 | 1018.9 |
| 20260507114520 | 5 | 54 | 4.8 | 11.3 | 0.00 | 0.00 | 0.00 | 36 | 1019.0 |
| 20260507113017 | 5 | 56 | 4.8 | 12.9 | 0.00 | 0.00 | 0.00 | 35 | 1018.9 |
| 20260507111519 | 5 | 65 | 4.8 | 11.3 | 0.00 | 0.00 | 0.00 | 35 | 1019.0 |
| 20260507110015 | 5 | 60 | 6.4 | 11.3 | 0.00 | 0.00 | 0.00 | 35 | 1019.1 |
| 20260507104514 | 5 | 33 | 0.0 | 0.0 | 0.00 | 0.00 | 0.00 | 37 | 1019.1 |
| 20260507103010 | 5 | 33 | 0.0 | 8.0 | 0.00 | 0.00 | 0.00 | 35 | 1019.2 |
| 20260507101513 | 6 | 46 | 8.0 | 14.5 | 0.00 | 0.00 | 0.00 | 34 | 1019.1 |
| 20260507100011 | 6 | 60 | 8.0 | 14.5 | 0.00 | 0.00 | 0.00 | 34 | 1019.1 |
| 20260507094512 | 6 | 60 | 8.0 | 16.1 | 0.00 | 0.00 | 0.00 | 33 | 1019.1 |
| 20260507093008 | 6 | 77 | 8.0 | 16.1 | 0.00 | 0.00 | 0.00 | 34 | 1019.0 |
| 20260507091505 | 6 | 60 | 8.0 | 14.5 | 0.00 | 0.00 | 0.00 | 34 | 1019.1 |
| 20260507090008 | 6 | 8 | 4.8 | 14.5 | 0.00 | 0.00 | 0.00 | 34 | 1019.1 |
| 20260507084600 | 6 | 81 | 8.0 | 16.1 | 0.00 | 0.00 | 0.00 | 34 | 1019.0 |
| 20260507083058 | 6 | 79 | 6.4 | 14.5 | 0.00 | 0.00 | 0.00 | 33 | 1018.9 |
| 20260507081602 | 7 | 65 | 6.4 | 12.9 | 0.00 | 0.00 | 0.00 | 32 | 1018.9 |
| 20260507080053 | 7 | 50 | 3.2 | 11.3 | 0.00 | 0.00 | 0.00 | 32 | 1018.8 |